sensor_id;sensor_type;location;lat;lon;timestamp;temperature;humidity
4701;DHT22;8724;51.272;6.554;2023-07-29T00:01:17;21.80;99.90
4701;DHT22;8724;51.272;6.554;2023-07-29T00:03:46;21.80;99.90
4701;DHT22;8724;51.272;6.554;2023-07-29T00:06:15;21.80;99.90
4701;DHT22;8724;51.272;6.554;2023-07-29T00:08:44;21.80;99.90
4701;DHT22;8724;51.272;6.554;2023-07-29T00:11:12;21.80;99.90
4701;DHT22;8724;51.272;6.554;2023-07-29T00:13:40;21.80;99.90
4701;DHT22;8724;51.272;6.554;2023-07-29T00:16:09;21.70;99.90
4701;DHT22;8724;51.272;6.554;2023-07-29T00:18:38;21.70;99.90
4701;DHT22;8724;51.272;6.554;2023-07-29T00:21:14;21.80;99.90
4701;DHT22;8724;51.272;6.554;2023-07-29T00:23:47;21.70;99.90
4701;DHT22;8724;51.272;6.554;2023-07-29T00:26:19;21.80;99.90
4701;DHT22;8724;51.272;6.554;2023-07-29T00:28:49;21.70;99.90
4701;DHT22;8724;51.272;6.554;2023-07-29T00:31:18;21.80;99.90
4701;DHT22;8724;51.272;6.554;2023-07-29T00:33:50;21.80;99.90
4701;DHT22;8724;51.272;6.554;2023-07-29T00:36:21;21.70;99.90
4701;DHT22;8724;51.272;6.554;2023-07-29T00:38:52;21.80;99.90
4701;DHT22;8724;51.272;6.554;2023-07-29T00:41:25;21.70;99.90
4701;DHT22;8724;51.272;6.554;2023-07-29T00:43:53;21.70;99.90
4701;DHT22;8724;51.272;6.554;2023-07-29T00:46:25;21.80;99.90
4701;DHT22;8724;51.272;6.554;2023-07-29T00:48:56;21.70;99.90
4701;DHT22;8724;51.272;6.554;2023-07-29T00:51:26;21.70;99.90
4701;DHT22;8724;51.272;6.554;2023-07-29T00:53:56;21.70;99.90
4701;DHT22;8724;51.272;6.554;2023-07-29T00:56:25;21.70;99.90
4701;DHT22;8724;51.272;6.554;2023-07-29T00:58:54;21.70;99.90
4701;DHT22;8724;51.272;6.554;2023-07-29T01:01:27;21.70;99.90
4701;DHT22;8724;51.272;6.554;2023-07-29T01:03:55;21.70;99.90
4701;DHT22;8724;51.272;6.554;2023-07-29T01:06:33;21.70;99.90
4701;DHT22;8724;51.272;6.554;2023-07-29T01:09:06;21.70;99.90
4701;DHT22;8724;51.272;6.554;2023-07-29T01:11:55;21.70;99.90
4701;DHT22;8724;51.272;6.554;2023-07-29T01:14:31;21.70;99.90
4701;DHT22;8724;51.272;6.554;2023-07-29T01:17:05;21.70;99.90
4701;DHT22;8724;51.272;6.554;2023-07-29T01:19:43;21.70;99.90
4701;DHT22;8724;51.272;6.554;2023-07-29T01:22:19;21.70;99.90
4701;DHT22;8724;51.272;6.554;2023-07-29T01:24:53;21.70;99.90
4701;DHT22;8724;51.272;6.554;2023-07-29T01:27:21;21.70;99.90
4701;DHT22;8724;51.272;6.554;2023-07-29T01:29:52;21.70;99.90
4701;DHT22;8724;51.272;6.554;2023-07-29T01:32:28;21.70;99.90
4701;DHT22;8724;51.272;6.554;2023-07-29T01:35:03;21.70;99.90
4701;DHT22;8724;51.272;6.554;2023-07-29T01:37:34;21.70;99.90
4701;DHT22;8724;51.272;6.554;2023-07-29T01:40:07;21.70;99.90
4701;DHT22;8724;51.272;6.554;2023-07-29T01:42:37;21.70;99.90
4701;DHT22;8724;51.272;6.554;2023-07-29T01:45:06;21.70;99.90
4701;DHT22;8724;51.272;6.554;2023-07-29T01:47:34;21.70;99.90
4701;DHT22;8724;51.272;6.554;2023-07-29T01:50:05;21.70;99.90
4701;DHT22;8724;51.272;6.554;2023-07-29T01:52:33;21.70;99.90
4701;DHT22;8724;51.272;6.554;2023-07-29T01:55:02;21.70;99.90
4701;DHT22;8724;51.272;6.554;2023-07-29T01:57:32;21.70;99.90
4701;DHT22;8724;51.272;6.554;2023-07-29T02:00:02;21.70;99.90
4701;DHT22;8724;51.272;6.554;2023-07-29T02:02:40;21.70;99.90
4701;DHT22;8724;51.272;6.554;2023-07-29T02:05:08;21.70;99.90
4701;DHT22;8724;51.272;6.554;2023-07-29T02:07:37;21.60;99.90
4701;DHT22;8724;51.272;6.554;2023-07-29T02:10:06;21.70;99.90
4701;DHT22;8724;51.272;6.554;2023-07-29T02:12:37;21.70;99.90
4701;DHT22;8724;51.272;6.554;2023-07-29T02:15:06;21.70;99.90
4701;DHT22;8724;51.272;6.554;2023-07-29T02:17:35;21.70;99.90
4701;DHT22;8724;51.272;6.554;2023-07-29T02:20:04;21.70;99.90
4701;DHT22;8724;51.272;6.554;2023-07-29T02:22:33;21.60;99.90
4701;DHT22;8724;51.272;6.554;2023-07-29T02:25:02;21.60;99.90
4701;DHT22;8724;51.272;6.554;2023-07-29T02:27:31;21.60;99.90
4701;DHT22;8724;51.272;6.554;2023-07-29T02:30:02;21.60;99.90
4701;DHT22;8724;51.272;6.554;2023-07-29T02:32:31;21.60;99.90
4701;DHT22;8724;51.272;6.554;2023-07-29T02:35:00;21.60;99.90
4701;DHT22;8724;51.272;6.554;2023-07-29T02:37:28;21.60;99.90
4701;DHT22;8724;51.272;6.554;2023-07-29T02:39:57;21.60;99.90
4701;DHT22;8724;51.272;6.554;2023-07-29T02:42:25;21.60;99.90
4701;DHT22;8724;51.272;6.554;2023-07-29T02:44:57;21.60;99.90
4701;DHT22;8724;51.272;6.554;2023-07-29T02:47:27;21.60;99.90
4701;DHT22;8724;51.272;6.554;2023-07-29T02:49:55;21.60;99.90
4701;DHT22;8724;51.272;6.554;2023-07-29T02:52:24;21.60;99.90
4701;DHT22;8724;51.272;6.554;2023-07-29T02:54:53;21.60;99.90
4701;DHT22;8724;51.272;6.554;2023-07-29T02:57:21;21.60;99.90
4701;DHT22;8724;51.272;6.554;2023-07-29T02:59:50;21.60;99.90
4701;DHT22;8724;51.272;6.554;2023-07-29T03:02:18;21.60;99.90
4701;DHT22;8724;51.272;6.554;2023-07-29T03:04:49;21.50;99.90
4701;DHT22;8724;51.272;6.554;2023-07-29T03:07:17;21.50;99.90
4701;DHT22;8724;51.272;6.554;2023-07-29T03:09:47;21.50;99.90
4701;DHT22;8724;51.272;6.554;2023-07-29T03:12:16;21.60;99.90
4701;DHT22;8724;51.272;6.554;2023-07-29T03:14:47;21.50;99.90
4701;DHT22;8724;51.272;6.554;2023-07-29T03:17:16;21.50;99.90
4701;DHT22;8724;51.272;6.554;2023-07-29T03:19:44;21.50;99.90
4701;DHT22;8724;51.272;6.554;2023-07-29T03:22:14;21.50;99.90
4701;DHT22;8724;51.272;6.554;2023-07-29T03:24:43;21.50;99.90
4701;DHT22;8724;51.272;6.554;2023-07-29T03:27:11;21.50;99.90
4701;DHT22;8724;51.272;6.554;2023-07-29T03:29:40;21.50;99.90
4701;DHT22;8724;51.272;6.554;2023-07-29T03:32:08;21.50;99.90
4701;DHT22;8724;51.272;6.554;2023-07-29T03:34:37;21.50;99.90
4701;DHT22;8724;51.272;6.554;2023-07-29T03:37:05;21.50;99.90
4701;DHT22;8724;51.272;6.554;2023-07-29T03:39:35;21.50;99.90
4701;DHT22;8724;51.272;6.554;2023-07-29T03:42:04;21.20;99.90
4701;DHT22;8724;51.272;6.554;2023-07-29T03:44:33;21.50;99.90
4701;DHT22;8724;51.272;6.554;2023-07-29T03:47:02;21.50;99.90
4701;DHT22;8724;51.272;6.554;2023-07-29T03:49:31;21.40;99.90
4701;DHT22;8724;51.272;6.554;2023-07-29T03:52:00;21.40;99.90
4701;DHT22;8724;51.272;6.554;2023-07-29T03:54:28;21.40;99.90
4701;DHT22;8724;51.272;6.554;2023-07-29T03:56:58;21.40;99.90
4701;DHT22;8724;51.272;6.554;2023-07-29T03:59:26;21.40;99.90
4701;DHT22;8724;51.272;6.554;2023-07-29T04:01:57;21.40;99.90
4701;DHT22;8724;51.272;6.554;2023-07-29T04:04:25;21.40;99.90
4701;DHT22;8724;51.272;6.554;2023-07-29T04:06:54;21.30;99.90
4701;DHT22;8724;51.272;6.554;2023-07-29T04:09:23;21.30;99.90
4701;DHT22;8724;51.272;6.554;2023-07-29T04:11:51;21.30;99.90
4701;DHT22;8724;51.272;6.554;2023-07-29T04:14:21;21.30;99.90
4701;DHT22;8724;51.272;6.554;2023-07-29T04:16:52;21.30;99.90
4701;DHT22;8724;51.272;6.554;2023-07-29T04:19:21;21.30;99.90
4701;DHT22;8724;51.272;6.554;2023-07-29T04:21:50;21.30;99.90
4701;DHT22;8724;51.272;6.554;2023-07-29T04:24:19;21.30;99.90
4701;DHT22;8724;51.272;6.554;2023-07-29T04:26:50;21.30;99.90
4701;DHT22;8724;51.272;6.554;2023-07-29T04:29:21;21.20;99.90
4701;DHT22;8724;51.272;6.554;2023-07-29T04:31:51;21.20;99.90
4701;DHT22;8724;51.272;6.554;2023-07-29T04:34:32;21.20;99.90
4701;DHT22;8724;51.272;6.554;2023-07-29T04:37:00;21.20;99.90
4701;DHT22;8724;51.272;6.554;2023-07-29T04:39:32;21.20;99.90
4701;DHT22;8724;51.272;6.554;2023-07-29T04:42:06;21.20;99.90
4701;DHT22;8724;51.272;6.554;2023-07-29T04:44:44;21.20;99.90
4701;DHT22;8724;51.272;6.554;2023-07-29T04:47:32;21.20;99.90
4701;DHT22;8724;51.272;6.554;2023-07-29T04:50:12;21.20;99.90
4701;DHT22;8724;51.272;6.554;2023-07-29T04:52:52;21.20;99.90
4701;DHT22;8724;51.272;6.554;2023-07-29T04:55:35;21.20;99.90
4701;DHT22;8724;51.272;6.554;2023-07-29T05:01:16;21.20;99.90
4701;DHT22;8724;51.272;6.554;2023-07-29T05:04:11;21.20;99.90
4701;DHT22;8724;51.272;6.554;2023-07-29T05:06:58;21.20;99.90
4701;DHT22;8724;51.272;6.554;2023-07-29T05:09:48;21.20;99.90
4701;DHT22;8724;51.272;6.554;2023-07-29T05:12:23;21.20;99.90
4701;DHT22;8724;51.272;6.554;2023-07-29T05:14:58;21.20;99.90
4701;DHT22;8724;51.272;6.554;2023-07-29T05:17:40;21.10;99.90
4701;DHT22;8724;51.272;6.554;2023-07-29T05:20:20;21.20;99.90
4701;DHT22;8724;51.272;6.554;2023-07-29T05:23:11;21.10;99.90
4701;DHT22;8724;51.272;6.554;2023-07-29T05:25:39;21.20;99.90
4701;DHT22;8724;51.272;6.554;2023-07-29T05:28:11;21.10;99.90
4701;DHT22;8724;51.272;6.554;2023-07-29T05:30:49;21.10;99.90
4701;DHT22;8724;51.272;6.554;2023-07-29T05:33:41;21.10;99.90
4701;DHT22;8724;51.272;6.554;2023-07-29T05:36:17;21.10;99.90
4701;DHT22;8724;51.272;6.554;2023-07-29T05:38:51;21.10;99.90
4701;DHT22;8724;51.272;6.554;2023-07-29T05:41:41;21.10;99.90
4701;DHT22;8724;51.272;6.554;2023-07-29T05:44:18;21.10;99.90
4701;DHT22;8724;51.272;6.554;2023-07-29T05:46:48;21.10;99.90
4701;DHT22;8724;51.272;6.554;2023-07-29T05:49:27;21.10;99.90
4701;DHT22;8724;51.272;6.554;2023-07-29T05:52:05;21.10;99.90
4701;DHT22;8724;51.272;6.554;2023-07-29T05:54:39;21.10;99.90
4701;DHT22;8724;51.272;6.554;2023-07-29T05:57:11;21.00;99.90
4701;DHT22;8724;51.272;6.554;2023-07-29T05:59:40;21.00;99.90
4701;DHT22;8724;51.272;6.554;2023-07-29T06:02:08;21.00;99.90
4701;DHT22;8724;51.272;6.554;2023-07-29T06:04:38;21.00;99.90
4701;DHT22;8724;51.272;6.554;2023-07-29T06:07:07;21.00;99.90
4701;DHT22;8724;51.272;6.554;2023-07-29T06:09:35;21.00;99.90
4701;DHT22;8724;51.272;6.554;2023-07-29T06:12:04;21.00;99.90
4701;DHT22;8724;51.272;6.554;2023-07-29T06:14:33;21.00;99.90
4701;DHT22;8724;51.272;6.554;2023-07-29T06:17:01;21.00;99.90
4701;DHT22;8724;51.272;6.554;2023-07-29T06:19:30;21.00;99.90
4701;DHT22;8724;51.272;6.554;2023-07-29T06:22:01;20.90;99.90
4701;DHT22;8724;51.272;6.554;2023-07-29T06:24:31;20.90;99.90
4701;DHT22;8724;51.272;6.554;2023-07-29T06:27:00;20.90;99.90
4701;DHT22;8724;51.272;6.554;2023-07-29T06:29:29;20.90;99.90
4701;DHT22;8724;51.272;6.554;2023-07-29T06:31:58;20.90;99.90
4701;DHT22;8724;51.272;6.554;2023-07-29T06:34:27;20.90;99.90
4701;DHT22;8724;51.272;6.554;2023-07-29T06:36:56;20.90;99.90
4701;DHT22;8724;51.272;6.554;2023-07-29T06:39:26;20.90;99.90
4701;DHT22;8724;51.272;6.554;2023-07-29T06:41:54;20.90;99.90
4701;DHT22;8724;51.272;6.554;2023-07-29T06:44:23;20.90;99.90
4701;DHT22;8724;51.272;6.554;2023-07-29T06:46:51;20.90;99.90
4701;DHT22;8724;51.272;6.554;2023-07-29T06:49:20;20.90;99.90
4701;DHT22;8724;51.272;6.554;2023-07-29T06:51:48;20.90;99.90
4701;DHT22;8724;51.272;6.554;2023-07-29T06:54:17;20.90;99.90
4701;DHT22;8724;51.272;6.554;2023-07-29T06:56:46;20.90;99.90
4701;DHT22;8724;51.272;6.554;2023-07-29T06:59:15;20.90;99.90
4701;DHT22;8724;51.272;6.554;2023-07-29T07:01:43;20.90;99.90
4701;DHT22;8724;51.272;6.554;2023-07-29T07:04:12;21.00;99.90
4701;DHT22;8724;51.272;6.554;2023-07-29T07:06:40;21.00;99.90
4701;DHT22;8724;51.272;6.554;2023-07-29T07:09:09;21.00;99.90
4701;DHT22;8724;51.272;6.554;2023-07-29T07:11:37;21.00;99.90
4701;DHT22;8724;51.272;6.554;2023-07-29T07:14:07;21.00;99.90
4701;DHT22;8724;51.272;6.554;2023-07-29T07:16:35;21.00;99.90
4701;DHT22;8724;51.272;6.554;2023-07-29T07:19:06;21.00;99.90
4701;DHT22;8724;51.272;6.554;2023-07-29T07:21:35;21.00;99.90
4701;DHT22;8724;51.272;6.554;2023-07-29T07:24:04;21.00;99.90
4701;DHT22;8724;51.272;6.554;2023-07-29T07:26:33;21.00;99.90
4701;DHT22;8724;51.272;6.554;2023-07-29T07:29:02;21.00;99.90
4701;DHT22;8724;51.272;6.554;2023-07-29T07:31:33;21.00;99.90
4701;DHT22;8724;51.272;6.554;2023-07-29T07:34:03;21.00;99.90
4701;DHT22;8724;51.272;6.554;2023-07-29T07:36:34;21.00;99.90
4701;DHT22;8724;51.272;6.554;2023-07-29T07:39:03;20.80;99.90
4701;DHT22;8724;51.272;6.554;2023-07-29T07:41:32;21.00;99.90
4701;DHT22;8724;51.272;6.554;2023-07-29T07:44:01;21.10;99.90
4701;DHT22;8724;51.272;6.554;2023-07-29T07:46:30;21.10;99.90
4701;DHT22;8724;51.272;6.554;2023-07-29T07:49:00;21.10;99.90
4701;DHT22;8724;51.272;6.554;2023-07-29T07:51:28;21.10;99.90
4701;DHT22;8724;51.272;6.554;2023-07-29T07:53:57;21.10;99.90
4701;DHT22;8724;51.272;6.554;2023-07-29T07:56:26;21.10;99.90
4701;DHT22;8724;51.272;6.554;2023-07-29T07:58:54;21.10;99.90
4701;DHT22;8724;51.272;6.554;2023-07-29T08:01:23;21.10;99.90
4701;DHT22;8724;51.272;6.554;2023-07-29T08:03:51;21.10;99.90
4701;DHT22;8724;51.272;6.554;2023-07-29T08:06:21;21.10;99.90
4701;DHT22;8724;51.272;6.554;2023-07-29T08:08:50;21.10;99.90
4701;DHT22;8724;51.272;6.554;2023-07-29T08:11:18;21.00;99.90
4701;DHT22;8724;51.272;6.554;2023-07-29T08:13:47;21.20;99.90
4701;DHT22;8724;51.272;6.554;2023-07-29T08:16:15;21.20;99.90
4701;DHT22;8724;51.272;6.554;2023-07-29T08:18:44;21.20;99.90
4701;DHT22;8724;51.272;6.554;2023-07-29T08:21:11;21.20;99.90
4701;DHT22;8724;51.272;6.554;2023-07-29T08:23:41;21.20;99.90
4701;DHT22;8724;51.272;6.554;2023-07-29T08:26:09;21.20;99.90
4701;DHT22;8724;51.272;6.554;2023-07-29T08:28:39;21.20;99.90
4701;DHT22;8724;51.272;6.554;2023-07-29T08:31:07;21.20;99.90
4701;DHT22;8724;51.272;6.554;2023-07-29T08:33:36;21.30;99.90
4701;DHT22;8724;51.272;6.554;2023-07-29T08:36:05;21.30;99.90
4701;DHT22;8724;51.272;6.554;2023-07-29T08:38:33;21.30;99.90
4701;DHT22;8724;51.272;6.554;2023-07-29T08:41:12;21.30;99.90
4701;DHT22;8724;51.272;6.554;2023-07-29T08:43:46;21.40;99.90
4701;DHT22;8724;51.272;6.554;2023-07-29T08:46:16;21.40;99.90
4701;DHT22;8724;51.272;6.554;2023-07-29T08:48:47;21.40;99.90
4701;DHT22;8724;51.272;6.554;2023-07-29T08:51:17;21.40;99.90
4701;DHT22;8724;51.272;6.554;2023-07-29T08:53:46;21.50;99.90
4701;DHT22;8724;51.272;6.554;2023-07-29T08:56:17;21.50;99.90
4701;DHT22;8724;51.272;6.554;2023-07-29T08:58:45;21.50;99.90
4701;DHT22;8724;51.272;6.554;2023-07-29T09:01:15;21.50;99.90
4701;DHT22;8724;51.272;6.554;2023-07-29T09:03:43;21.50;99.90
4701;DHT22;8724;51.272;6.554;2023-07-29T09:06:14;21.50;99.90
4701;DHT22;8724;51.272;6.554;2023-07-29T09:08:43;21.50;99.90
4701;DHT22;8724;51.272;6.554;2023-07-29T09:11:15;21.70;99.90
4701;DHT22;8724;51.272;6.554;2023-07-29T09:13:44;21.50;99.90
4701;DHT22;8724;51.272;6.554;2023-07-29T09:16:13;21.50;99.90
4701;DHT22;8724;51.272;6.554;2023-07-29T09:18:43;21.50;99.90
4701;DHT22;8724;51.272;6.554;2023-07-29T09:21:12;21.50;99.90
4701;DHT22;8724;51.272;6.554;2023-07-29T09:23:41;21.50;99.90
4701;DHT22;8724;51.272;6.554;2023-07-29T09:26:10;21.50;99.90
4701;DHT22;8724;51.272;6.554;2023-07-29T09:28:40;21.50;99.90
4701;DHT22;8724;51.272;6.554;2023-07-29T09:31:19;21.50;99.90
4701;DHT22;8724;51.272;6.554;2023-07-29T09:33:48;21.50;99.90
4701;DHT22;8724;51.272;6.554;2023-07-29T09:36:17;21.50;99.90
4701;DHT22;8724;51.272;6.554;2023-07-29T09:38:48;21.60;99.90
4701;DHT22;8724;51.272;6.554;2023-07-29T09:41:22;21.60;99.90
4701;DHT22;8724;51.272;6.554;2023-07-29T09:43:59;21.60;99.90
4701;DHT22;8724;51.272;6.554;2023-07-29T09:46:32;21.60;99.90
4701;DHT22;8724;51.272;6.554;2023-07-29T09:49:04;21.60;99.90
4701;DHT22;8724;51.272;6.554;2023-07-29T09:51:37;21.70;99.90
4701;DHT22;8724;51.272;6.554;2023-07-29T09:54:07;21.70;99.90
4701;DHT22;8724;51.272;6.554;2023-07-29T09:56:41;21.70;99.90
4701;DHT22;8724;51.272;6.554;2023-07-29T09:59:11;21.70;99.90
4701;DHT22;8724;51.272;6.554;2023-07-29T10:01:42;21.70;99.90
4701;DHT22;8724;51.272;6.554;2023-07-29T10:04:12;21.70;99.90
4701;DHT22;8724;51.272;6.554;2023-07-29T10:06:42;21.70;99.90
4701;DHT22;8724;51.272;6.554;2023-07-29T10:09:11;21.80;99.90
4701;DHT22;8724;51.272;6.554;2023-07-29T10:11:41;21.70;99.90
4701;DHT22;8724;51.272;6.554;2023-07-29T10:14:12;21.80;99.90
4701;DHT22;8724;51.272;6.554;2023-07-29T10:16:42;21.60;99.90
4701;DHT22;8724;51.272;6.554;2023-07-29T10:19:14;21.80;99.90
4701;DHT22;8724;51.272;6.554;2023-07-29T10:21:48;21.90;99.90
4701;DHT22;8724;51.272;6.554;2023-07-29T10:24:19;21.90;99.90
4701;DHT22;8724;51.272;6.554;2023-07-29T10:26:57;21.80;99.90
4701;DHT22;8724;51.272;6.554;2023-07-29T10:29:31;21.80;99.90
4701;DHT22;8724;51.272;6.554;2023-07-29T10:32:02;21.90;99.90
4701;DHT22;8724;51.272;6.554;2023-07-29T10:34:31;21.90;99.90
4701;DHT22;8724;51.272;6.554;2023-07-29T10:37:01;22.00;99.90
4701;DHT22;8724;51.272;6.554;2023-07-29T10:39:38;21.90;99.90
4701;DHT22;8724;51.272;6.554;2023-07-29T10:42:07;22.00;99.90
4701;DHT22;8724;51.272;6.554;2023-07-29T10:44:52;22.00;99.90
4701;DHT22;8724;51.272;6.554;2023-07-29T10:47:24;22.00;99.90
4701;DHT22;8724;51.272;6.554;2023-07-29T10:49:56;22.00;99.90
4701;DHT22;8724;51.272;6.554;2023-07-29T10:52:30;22.10;99.90
4701;DHT22;8724;51.272;6.554;2023-07-29T10:55:03;22.10;99.90
4701;DHT22;8724;51.272;6.554;2023-07-29T10:57:33;22.10;99.90
4701;DHT22;8724;51.272;6.554;2023-07-29T11:00:05;22.10;99.90
4701;DHT22;8724;51.272;6.554;2023-07-29T11:02:35;22.10;99.90
4701;DHT22;8724;51.272;6.554;2023-07-29T11:05:06;22.10;99.90
4701;DHT22;8724;51.272;6.554;2023-07-29T11:07:47;22.10;99.90
4701;DHT22;8724;51.272;6.554;2023-07-29T11:10:16;22.10;99.90
4701;DHT22;8724;51.272;6.554;2023-07-29T11:12:45;22.10;99.90
4701;DHT22;8724;51.272;6.554;2023-07-29T11:15:19;22.10;99.90
4701;DHT22;8724;51.272;6.554;2023-07-29T11:17:49;22.10;99.90
4701;DHT22;8724;51.272;6.554;2023-07-29T11:20:21;22.10;99.90
4701;DHT22;8724;51.272;6.554;2023-07-29T11:22:50;22.10;99.90
4701;DHT22;8724;51.272;6.554;2023-07-29T11:25:20;22.10;99.90
4701;DHT22;8724;51.272;6.554;2023-07-29T11:27:50;22.20;99.90
4701;DHT22;8724;51.272;6.554;2023-07-29T11:30:21;22.20;99.90
4701;DHT22;8724;51.272;6.554;2023-07-29T11:32:50;22.20;99.90
4701;DHT22;8724;51.272;6.554;2023-07-29T11:35:19;22.20;99.90
4701;DHT22;8724;51.272;6.554;2023-07-29T11:37:49;22.30;99.90
4701;DHT22;8724;51.272;6.554;2023-07-29T11:40:19;22.30;99.90
4701;DHT22;8724;51.272;6.554;2023-07-29T11:42:50;22.30;99.90
4701;DHT22;8724;51.272;6.554;2023-07-29T11:45:18;22.30;99.90
4701;DHT22;8724;51.272;6.554;2023-07-29T11:47:48;22.30;99.90
4701;DHT22;8724;51.272;6.554;2023-07-29T11:50:17;22.30;99.90
4701;DHT22;8724;51.272;6.554;2023-07-29T11:52:46;22.30;99.90
4701;DHT22;8724;51.272;6.554;2023-07-29T11:55:15;22.40;99.90
4701;DHT22;8724;51.272;6.554;2023-07-29T11:57:51;22.40;99.90
4701;DHT22;8724;51.272;6.554;2023-07-29T12:00:21;22.40;99.90
4701;DHT22;8724;51.272;6.554;2023-07-29T12:02:51;22.40;99.90
4701;DHT22;8724;51.272;6.554;2023-07-29T12:05:22;22.40;99.90
4701;DHT22;8724;51.272;6.554;2023-07-29T12:07:52;22.50;99.90
4701;DHT22;8724;51.272;6.554;2023-07-29T12:10:21;22.50;99.90
4701;DHT22;8724;51.272;6.554;2023-07-29T12:12:50;22.50;99.90
4701;DHT22;8724;51.272;6.554;2023-07-29T12:15:26;22.50;99.90
4701;DHT22;8724;51.272;6.554;2023-07-29T12:17:57;22.60;99.90
4701;DHT22;8724;51.272;6.554;2023-07-29T12:20:26;22.60;99.90
4701;DHT22;8724;51.272;6.554;2023-07-29T12:23:02;22.70;99.90
4701;DHT22;8724;51.272;6.554;2023-07-29T12:25:57;22.70;99.90
4701;DHT22;8724;51.272;6.554;2023-07-29T12:28:27;22.70;99.90
4701;DHT22;8724;51.272;6.554;2023-07-29T12:30:57;22.80;99.90
4701;DHT22;8724;51.272;6.554;2023-07-29T12:33:34;22.80;99.90
4701;DHT22;8724;51.272;6.554;2023-07-29T12:36:04;22.80;99.90
4701;DHT22;8724;51.272;6.554;2023-07-29T12:38:33;22.90;99.90
4701;DHT22;8724;51.272;6.554;2023-07-29T12:41:01;22.90;99.90
4701;DHT22;8724;51.272;6.554;2023-07-29T12:43:30;22.90;99.90
4701;DHT22;8724;51.272;6.554;2023-07-29T12:45:58;23.00;99.90
4701;DHT22;8724;51.272;6.554;2023-07-29T12:48:27;23.00;99.90
4701;DHT22;8724;51.272;6.554;2023-07-29T12:50:59;23.00;99.90
4701;DHT22;8724;51.272;6.554;2023-07-29T12:53:28;23.00;99.90
4701;DHT22;8724;51.272;6.554;2023-07-29T12:55:57;23.00;99.90
4701;DHT22;8724;51.272;6.554;2023-07-29T12:58:29;23.10;99.90
4701;DHT22;8724;51.272;6.554;2023-07-29T13:01:00;23.10;99.90
4701;DHT22;8724;51.272;6.554;2023-07-29T13:03:29;23.10;99.90
4701;DHT22;8724;51.272;6.554;2023-07-29T13:05:59;23.10;99.90
4701;DHT22;8724;51.272;6.554;2023-07-29T13:08:30;23.10;99.90
4701;DHT22;8724;51.272;6.554;2023-07-29T13:10:58;23.10;99.90
4701;DHT22;8724;51.272;6.554;2023-07-29T13:13:27;23.10;99.90
4701;DHT22;8724;51.272;6.554;2023-07-29T13:15:55;23.00;99.90
4701;DHT22;8724;51.272;6.554;2023-07-29T13:18:26;23.00;99.90
4701;DHT22;8724;51.272;6.554;2023-07-29T13:20:55;23.00;99.90
4701;DHT22;8724;51.272;6.554;2023-07-29T13:23:26;23.00;99.90
4701;DHT22;8724;51.272;6.554;2023-07-29T13:25:55;22.90;99.90
4701;DHT22;8724;51.272;6.554;2023-07-29T13:28:23;22.90;99.90
4701;DHT22;8724;51.272;6.554;2023-07-29T13:30:52;22.90;99.90
4701;DHT22;8724;51.272;6.554;2023-07-29T13:33:20;22.90;99.90
4701;DHT22;8724;51.272;6.554;2023-07-29T13:35:49;22.80;99.90
4701;DHT22;8724;51.272;6.554;2023-07-29T13:38:17;22.80;99.90
4701;DHT22;8724;51.272;6.554;2023-07-29T13:40:48;22.80;99.90
4701;DHT22;8724;51.272;6.554;2023-07-29T13:43:18;22.70;99.90
4701;DHT22;8724;51.272;6.554;2023-07-29T13:45:46;22.70;99.90
4701;DHT22;8724;51.272;6.554;2023-07-29T13:48:18;22.60;99.90
4701;DHT22;8724;51.272;6.554;2023-07-29T13:50:47;22.60;99.90
4701;DHT22;8724;51.272;6.554;2023-07-29T13:53:15;22.80;99.90
4701;DHT22;8724;51.272;6.554;2023-07-29T13:55:44;22.50;99.90
4701;DHT22;8724;51.272;6.554;2023-07-29T13:58:13;22.60;99.90
4701;DHT22;8724;51.272;6.554;2023-07-29T14:00:42;22.60;99.90
4701;DHT22;8724;51.272;6.554;2023-07-29T14:03:10;22.60;99.90
4701;DHT22;8724;51.272;6.554;2023-07-29T14:05:39;22.60;99.90
4701;DHT22;8724;51.272;6.554;2023-07-29T14:08:07;22.60;99.90
4701;DHT22;8724;51.272;6.554;2023-07-29T14:10:36;22.60;99.90
4701;DHT22;8724;51.272;6.554;2023-07-29T14:13:05;22.90;99.90
4701;DHT22;8724;51.272;6.554;2023-07-29T14:15:34;22.60;99.90
4701;DHT22;8724;51.272;6.554;2023-07-29T14:18:03;22.60;99.90
4701;DHT22;8724;51.272;6.554;2023-07-29T14:20:32;22.60;99.90
4701;DHT22;8724;51.272;6.554;2023-07-29T14:23:01;22.60;99.90
4701;DHT22;8724;51.272;6.554;2023-07-29T14:25:29;22.60;99.90
4701;DHT22;8724;51.272;6.554;2023-07-29T14:27:58;22.60;99.90
4701;DHT22;8724;51.272;6.554;2023-07-29T14:30:26;22.60;99.90
4701;DHT22;8724;51.272;6.554;2023-07-29T14:32:57;22.50;99.90
4701;DHT22;8724;51.272;6.554;2023-07-29T14:35:25;22.50;99.90
4701;DHT22;8724;51.272;6.554;2023-07-29T14:37:54;22.50;99.90
4701;DHT22;8724;51.272;6.554;2023-07-29T14:40:22;22.50;99.90
4701;DHT22;8724;51.272;6.554;2023-07-29T14:42:51;22.40;99.90
4701;DHT22;8724;51.272;6.554;2023-07-29T14:45:19;22.40;99.90
4701;DHT22;8724;51.272;6.554;2023-07-29T14:47:47;22.40;99.90
4701;DHT22;8724;51.272;6.554;2023-07-29T14:50:17;22.40;99.90
4701;DHT22;8724;51.272;6.554;2023-07-29T14:52:46;22.40;99.90
4701;DHT22;8724;51.272;6.554;2023-07-29T14:55:15;22.40;99.90
4701;DHT22;8724;51.272;6.554;2023-07-29T14:57:43;22.10;99.90
4701;DHT22;8724;51.272;6.554;2023-07-29T15:00:12;22.40;99.90
4701;DHT22;8724;51.272;6.554;2023-07-29T15:02:41;22.40;99.90
4701;DHT22;8724;51.272;6.554;2023-07-29T15:05:10;22.40;99.90
4701;DHT22;8724;51.272;6.554;2023-07-29T15:07:39;22.50;99.90
4701;DHT22;8724;51.272;6.554;2023-07-29T15:10:08;22.60;99.90
4701;DHT22;8724;51.272;6.554;2023-07-29T15:12:37;22.80;99.90
4701;DHT22;8724;51.272;6.554;2023-07-29T15:15:06;22.80;99.90
4701;DHT22;8724;51.272;6.554;2023-07-29T15:17:35;23.00;99.90
4701;DHT22;8724;51.272;6.554;2023-07-29T15:20:05;23.20;99.90
4701;DHT22;8724;51.272;6.554;2023-07-29T15:22:34;23.40;99.90
4701;DHT22;8724;51.272;6.554;2023-07-29T15:25:04;23.70;99.90
4701;DHT22;8724;51.272;6.554;2023-07-29T15:27:33;23.90;99.90
4701;DHT22;8724;51.272;6.554;2023-07-29T15:30:01;24.30;99.90
4701;DHT22;8724;51.272;6.554;2023-07-29T15:32:30;24.60;99.90
4701;DHT22;8724;51.272;6.554;2023-07-29T15:34:59;24.90;99.90
4701;DHT22;8724;51.272;6.554;2023-07-29T15:37:27;25.40;99.90
4701;DHT22;8724;51.272;6.554;2023-07-29T15:39:56;25.80;99.90
4701;DHT22;8724;51.272;6.554;2023-07-29T15:42:25;26.20;99.90
4701;DHT22;8724;51.272;6.554;2023-07-29T15:44:54;26.60;99.90
4701;DHT22;8724;51.272;6.554;2023-07-29T15:47:22;27.10;99.90
4701;DHT22;8724;51.272;6.554;2023-07-29T15:49:52;27.50;99.90
4701;DHT22;8724;51.272;6.554;2023-07-29T15:52:20;27.90;99.90
4701;DHT22;8724;51.272;6.554;2023-07-29T15:54:49;28.20;99.90
4701;DHT22;8724;51.272;6.554;2023-07-29T15:57:19;28.50;99.90
4701;DHT22;8724;51.272;6.554;2023-07-29T15:59:49;28.70;99.90
4701;DHT22;8724;51.272;6.554;2023-07-29T16:02:18;28.60;99.90
4701;DHT22;8724;51.272;6.554;2023-07-29T16:04:46;28.60;99.90
4701;DHT22;8724;51.272;6.554;2023-07-29T16:07:15;28.50;99.90
4701;DHT22;8724;51.272;6.554;2023-07-29T16:09:43;28.50;99.90
4701;DHT22;8724;51.272;6.554;2023-07-29T16:12:12;28.40;99.90
4701;DHT22;8724;51.272;6.554;2023-07-29T16:14:40;28.20;99.90
4701;DHT22;8724;51.272;6.554;2023-07-29T16:17:10;28.00;99.90
4701;DHT22;8724;51.272;6.554;2023-07-29T16:19:53;27.80;99.90
4701;DHT22;8724;51.272;6.554;2023-07-29T16:22:22;27.60;99.90
4701;DHT22;8724;51.272;6.554;2023-07-29T16:24:50;27.40;99.90
4701;DHT22;8724;51.272;6.554;2023-07-29T16:27:19;27.10;99.90